createdAt,value
2019-03-26T00:01:45.359Z,7.20
2019-03-26T00:04:15.451Z,7.10
2019-03-26T00:06:45.371Z,7.10
2019-03-26T00:09:15.219Z,7.20
2019-03-26T00:11:44.925Z,7.20
2019-03-26T00:14:14.868Z,7.10
2019-03-26T00:16:44.597Z,7.10
2019-03-26T00:19:14.476Z,7.10
2019-03-26T00:21:44.182Z,7.00
2019-03-26T00:24:14.001Z,7.10
2019-03-26T00:26:43.705Z,7.00
2019-03-26T00:29:13.594Z,7.00
2019-03-26T00:31:43.714Z,7.00
2019-03-26T00:34:19.240Z,7.00
2019-03-26T00:36:44.823Z,7.00
2019-03-26T00:39:14.501Z,7.00
2019-03-26T00:41:44.224Z,7.00
2019-03-26T00:44:13.919Z,7.00
2019-03-26T00:46:43.695Z,7.00
2019-03-26T00:49:13.377Z,7.00
2019-03-26T00:51:43.127Z,7.00
2019-03-26T00:54:12.808Z,6.80
2019-03-26T00:56:42.504Z,6.90
2019-03-26T00:59:12.168Z,7.00
2019-03-26T01:01:41.864Z,6.80
2019-03-26T01:04:11.586Z,6.90
2019-03-26T01:06:41.435Z,6.90
2019-03-26T01:09:11.167Z,6.90
2019-03-26T01:11:41.024Z,6.90
2019-03-26T01:14:10.721Z,6.90
2019-03-26T01:16:40.467Z,6.90
2019-03-26T01:19:10.219Z,6.90
2019-03-26T01:21:39.918Z,6.90
2019-03-26T01:24:09.599Z,6.90
2019-03-26T01:26:39.304Z,6.80
2019-03-26T01:29:09.049Z,6.80
2019-03-26T01:31:38.791Z,6.80
2019-03-26T01:34:08.714Z,6.80
2019-03-26T01:36:38.404Z,6.80
2019-03-26T01:39:08.257Z,6.90
2019-03-26T01:41:37.923Z,6.90
2019-03-26T01:44:07.633Z,6.90
2019-03-26T01:46:37.309Z,6.80
2019-03-26T01:49:07.032Z,6.90
2019-03-26T01:51:36.704Z,6.90
2019-03-26T01:54:07.901Z,6.90
2019-03-26T01:56:37.594Z,6.90
2019-03-26T01:59:07.341Z,6.90
2019-03-26T02:01:37.037Z,6.90
2019-03-26T02:04:06.805Z,6.90
2019-03-26T02:06:36.488Z,6.80
2019-03-26T02:09:07.329Z,6.80
2019-03-26T02:11:37.017Z,6.70
2019-03-26T02:14:06.753Z,6.60
2019-03-26T02:16:36.426Z,6.60
2019-03-26T02:19:06.130Z,6.60
2019-03-26T02:21:35.817Z,6.50
2019-03-26T02:24:05.791Z,6.60
2019-03-26T02:26:35.485Z,6.40
2019-03-26T02:29:05.205Z,6.40
2019-03-26T02:31:34.889Z,6.40
2019-03-26T02:34:04.650Z,6.40
2019-03-26T02:36:34.568Z,6.40
2019-03-26T02:39:05.997Z,6.30
2019-03-26T02:41:37.851Z,6.30
2019-03-26T02:44:07.116Z,6.20
2019-03-26T02:46:36.819Z,6.20
2019-03-26T02:49:06.789Z,6.00
2019-03-26T02:51:36.488Z,5.90
2019-03-26T02:54:06.385Z,5.90
2019-03-26T02:56:36.093Z,5.90
2019-03-26T02:59:05.765Z,5.90
2019-03-26T03:01:35.769Z,5.90
2019-03-26T03:04:05.523Z,5.80
2019-03-26T03:06:35.238Z,5.70
2019-03-26T03:09:06.400Z,5.30
2019-03-26T03:11:36.120Z,5.20
2019-03-26T03:14:05.796Z,5.30
2019-03-26T03:16:35.494Z,5.30
2019-03-26T03:19:05.268Z,5.20
2019-03-26T03:21:35.020Z,5.30
2019-03-26T03:24:04.700Z,5.10
2019-03-26T03:26:34.428Z,5.20
2019-03-26T03:29:04.313Z,5.30
2019-03-26T03:31:34.019Z,5.30
2019-03-26T03:34:03.797Z,5.30
2019-03-26T03:36:33.727Z,5.30
2019-03-26T03:39:05.241Z,4.90
2019-03-26T03:41:35.318Z,5.10
2019-03-26T03:44:05.010Z,5.10
2019-03-26T03:46:35.507Z,5.00
2019-03-26T03:49:05.388Z,4.70
2019-03-26T03:51:36.040Z,4.90
2019-03-26T03:54:05.812Z,5.00
2019-03-26T03:56:37.584Z,5.00
2019-03-26T03:59:10.221Z,5.00
2019-03-26T04:01:39.922Z,4.90
2019-03-26T04:04:09.635Z,4.90
2019-03-26T04:06:46.978Z,4.90
2019-03-26T04:09:14.359Z,4.80
2019-03-26T04:11:44.115Z,4.60
2019-03-26T04:14:13.837Z,4.60
2019-03-26T04:16:43.595Z,4.70
2019-03-26T04:19:13.305Z,4.70
2019-03-26T04:21:43.019Z,4.60
2019-03-26T04:24:12.931Z,4.60
2019-03-26T04:26:42.866Z,4.80
2019-03-26T04:29:12.577Z,4.90
2019-03-26T04:31:42.248Z,4.90
2019-03-26T04:34:11.982Z,5.00
2019-03-26T04:36:41.654Z,5.00
2019-03-26T04:39:11.358Z,5.10
2019-03-26T04:41:41.035Z,5.10
2019-03-26T04:44:10.830Z,5.10
2019-03-26T04:46:40.517Z,5.00
2019-03-26T04:49:10.444Z,5.10
2019-03-26T04:51:40.146Z,5.00
2019-03-26T04:54:09.844Z,4.90
2019-03-26T04:56:39.515Z,4.70
2019-03-26T04:59:09.222Z,4.80
2019-03-26T05:01:38.913Z,4.90
2019-03-26T05:04:08.781Z,5.00
2019-03-26T05:06:38.596Z,5.00
2019-03-26T05:09:08.381Z,5.00
2019-03-26T05:11:38.088Z,5.10
2019-03-26T05:14:07.865Z,5.00
2019-03-26T05:16:37.605Z,5.20
2019-03-26T05:19:07.411Z,4.80
2019-03-26T05:21:37.211Z,4.90
2019-03-26T05:24:06.967Z,5.00
2019-03-26T05:26:36.640Z,5.10
2019-03-26T05:29:25.149Z,5.10
2019-03-26T05:31:54.892Z,4.90
2019-03-26T05:34:24.718Z,5.00
2019-03-26T05:36:54.424Z,5.10
2019-03-26T05:39:24.205Z,5.10
2019-03-26T05:41:53.925Z,5.20
2019-03-26T05:44:23.863Z,5.10
2019-03-26T05:46:53.701Z,5.00
2019-03-26T05:49:25.672Z,5.10
2019-03-26T05:51:55.417Z,5.10
2019-03-26T05:54:26.889Z,5.30
2019-03-26T05:56:56.630Z,5.40
2019-03-26T05:59:26.396Z,5.50
2019-03-26T06:01:56.187Z,5.50
2019-03-26T06:04:25.916Z,5.40
2019-03-26T06:07:04.635Z,5.50
2019-03-26T06:09:27.160Z,5.50
2019-03-26T06:12:05.839Z,5.60
2019-03-26T06:14:35.541Z,5.60
2019-03-26T06:17:05.249Z,5.60
2019-03-26T06:19:34.940Z,5.70
2019-03-26T06:22:04.796Z,5.70
2019-03-26T06:24:34.505Z,5.80
2019-03-26T06:27:04.318Z,5.80
2019-03-26T06:29:34.021Z,5.90
2019-03-26T06:32:03.743Z,5.90
2019-03-26T06:34:33.442Z,6.00
2019-03-26T06:37:03.246Z,6.00
2019-03-26T06:39:33.012Z,6.00
2019-03-26T06:42:02.743Z,6.10
2019-03-26T06:44:32.700Z,6.10
2019-03-26T06:47:02.435Z,6.10
2019-03-26T06:49:32.176Z,6.10
2019-03-26T06:52:02.007Z,6.20
2019-03-26T06:54:31.999Z,6.20
2019-03-26T06:57:01.666Z,6.20
2019-03-26T06:59:31.423Z,6.20
2019-03-26T07:02:01.223Z,6.00
2019-03-26T07:04:30.956Z,6.10
2019-03-26T07:07:00.659Z,6.20
2019-03-26T07:09:30.540Z,6.20
2019-03-26T07:12:00.259Z,6.20
2019-03-26T07:14:30.213Z,6.30
2019-03-26T07:17:00.128Z,6.30
2019-03-26T07:19:29.832Z,6.30
2019-03-26T07:21:59.527Z,6.30
2019-03-26T07:24:29.296Z,6.40
2019-03-26T07:26:59.272Z,6.40
2019-03-26T07:29:28.979Z,6.40
2019-03-26T07:31:58.800Z,6.40
2019-03-26T07:34:30.614Z,6.50
2019-03-26T07:37:00.307Z,6.50
2019-03-26T07:39:30.010Z,6.50
2019-03-26T07:41:59.714Z,6.60
2019-03-26T07:44:29.457Z,6.50
2019-03-26T07:46:59.134Z,6.50
2019-03-26T07:49:28.813Z,6.60
2019-03-26T07:51:58.564Z,6.60
2019-03-26T07:54:28.333Z,6.60
2019-03-26T07:56:58.041Z,6.60
2019-03-26T07:59:27.768Z,6.60
2019-03-26T08:01:57.551Z,6.60
2019-03-26T08:04:27.224Z,6.70
2019-03-26T08:06:56.911Z,6.70
2019-03-26T08:09:26.781Z,6.80
2019-03-26T08:11:56.735Z,6.80
2019-03-26T08:14:26.458Z,6.80
2019-03-26T08:16:56.205Z,6.90
2019-03-26T08:19:25.898Z,6.80
2019-03-26T08:21:55.590Z,6.90
2019-03-26T08:24:25.295Z,6.90
2019-03-26T08:26:55.023Z,6.80
2019-03-26T08:29:24.721Z,6.90
2019-03-26T08:31:54.552Z,7.00
2019-03-26T08:34:24.334Z,7.10
2019-03-26T08:36:54.053Z,7.20
2019-03-26T08:39:23.784Z,7.30
2019-03-26T08:41:53.580Z,7.30
2019-03-26T08:44:23.285Z,7.40
2019-03-26T08:46:53.004Z,7.50
2019-03-26T08:49:22.726Z,7.50
2019-03-26T08:51:52.472Z,7.60
2019-03-26T08:54:22.245Z,7.80
2019-03-26T08:56:51.964Z,7.70
2019-03-26T08:59:21.684Z,7.80
2019-03-26T09:01:51.383Z,8.00
2019-03-26T09:04:21.167Z,7.90
2019-03-26T09:06:50.858Z,8.00
2019-03-26T09:09:20.589Z,8.10
2019-03-26T09:11:50.274Z,7.90
2019-03-26T09:14:19.981Z,8.00
2019-03-26T09:16:49.760Z,7.90
2019-03-26T09:19:19.481Z,7.90
2019-03-26T09:21:49.153Z,8.00
2019-03-26T09:24:18.889Z,8.00
2019-03-26T09:26:48.633Z,8.00
2019-03-26T09:29:18.522Z,8.10
2019-03-26T09:31:48.203Z,8.10
2019-03-26T09:34:17.928Z,8.10
2019-03-26T09:36:47.600Z,8.10
2019-03-26T09:39:17.307Z,8.30
2019-03-26T09:41:47.026Z,8.20
2019-03-26T09:44:16.730Z,8.40
2019-03-26T09:46:46.416Z,8.60
2019-03-26T09:49:17.308Z,8.70
2019-03-26T09:51:47.010Z,8.90
2019-03-26T09:54:16.712Z,9.20
2019-03-26T09:56:46.392Z,9.60
2019-03-26T09:59:16.076Z,9.90
2019-03-26T10:01:45.880Z,10.10
2019-03-26T10:04:15.679Z,10.20
2019-03-26T10:06:45.440Z,10.20
2019-03-26T10:09:15.142Z,9.70
2019-03-26T10:11:44.812Z,10.00
2019-03-26T10:14:14.932Z,10.20
2019-03-26T10:16:44.685Z,10.30
2019-03-26T10:19:16.892Z,10.50
2019-03-26T10:21:45.888Z,10.50
2019-03-26T10:24:15.600Z,10.50
2019-03-26T10:26:45.313Z,10.60
2019-03-26T10:29:29.202Z,10.70
2019-03-26T10:31:46.480Z,10.80
2019-03-26T10:34:16.180Z,10.80
2019-03-26T10:36:45.873Z,10.80
2019-03-26T10:39:15.580Z,10.80
2019-03-26T10:41:45.541Z,10.70
2019-03-26T10:44:15.211Z,10.90
2019-03-26T10:46:44.912Z,11.00
2019-03-26T10:49:14.612Z,11.20
2019-03-26T10:51:44.357Z,11.40
2019-03-26T10:54:14.025Z,11.00
2019-03-26T10:56:43.733Z,11.10
2019-03-26T10:59:13.413Z,10.80
2019-03-26T11:01:43.125Z,10.80
2019-03-26T11:04:12.813Z,10.70
2019-03-26T11:06:42.593Z,10.40
2019-03-26T11:09:23.060Z,10.30
2019-03-26T11:11:43.716Z,10.40
2019-03-26T11:14:13.411Z,10.30
2019-03-26T11:16:43.143Z,10.50
2019-03-26T11:19:12.852Z,10.60
2019-03-26T11:21:42.589Z,10.50
2019-03-26T11:24:12.251Z,10.40
2019-03-26T11:26:41.959Z,10.40
2019-03-26T11:29:11.680Z,10.20
2019-03-26T11:31:41.407Z,10.10
2019-03-26T11:34:11.187Z,10.00
2019-03-26T11:36:40.877Z,9.90
2019-03-26T11:39:10.775Z,10.00
2019-03-26T11:41:40.486Z,10.10
2019-03-26T11:44:10.188Z,10.20
2019-03-26T11:46:40.028Z,10.30
2019-03-26T11:49:09.760Z,10.70
2019-03-26T11:51:39.485Z,11.20
2019-03-26T11:54:09.264Z,11.80
2019-03-26T11:56:38.976Z,12.10
2019-03-26T11:59:08.686Z,12.60
2019-03-26T12:01:38.428Z,12.70
2019-03-26T12:04:08.124Z,12.50
2019-03-26T12:06:37.814Z,12.20
2019-03-26T12:09:09.014Z,11.90
2019-03-26T12:11:38.708Z,11.70
2019-03-26T12:14:08.440Z,11.50
2019-03-26T12:16:38.136Z,11.40
2019-03-26T12:19:07.867Z,11.20
2019-03-26T12:21:37.555Z,11.10
2019-03-26T12:24:07.274Z,11.30
2019-03-26T12:26:36.968Z,11.40
2019-03-26T12:29:06.722Z,11.80
2019-03-26T12:31:36.480Z,12.20
2019-03-26T12:34:06.368Z,14.90
2019-03-26T12:36:40.135Z,17.40
2019-03-26T12:39:08.458Z,19.40
2019-03-26T12:41:38.623Z,20.40
2019-03-26T12:44:08.630Z,20.40
2019-03-26T12:46:38.395Z,18.50
2019-03-26T12:49:08.165Z,19.00
2019-03-26T12:51:39.441Z,21.80
2019-03-26T12:54:09.379Z,24.20
2019-03-26T12:56:39.080Z,22.10
2019-03-26T12:59:08.796Z,18.40
2019-03-26T13:01:38.526Z,16.80
2019-03-26T13:04:13.294Z,15.40
2019-03-26T13:06:39.664Z,13.90
2019-03-26T13:09:10.312Z,13.30
2019-03-26T13:11:40.041Z,13.10
2019-03-26T13:14:09.751Z,16.20
2019-03-26T13:16:39.572Z,15.50
2019-03-26T13:19:09.308Z,14.60
2019-03-26T13:21:39.143Z,14.20
2019-03-26T13:24:11.318Z,16.70
2019-03-26T13:26:40.245Z,20.80
2019-03-26T13:29:10.030Z,20.10
2019-03-26T13:31:39.711Z,18.70
2019-03-26T13:34:09.456Z,16.90
2019-03-26T13:36:39.396Z,15.80
2019-03-26T13:39:10.273Z,14.50
2019-03-26T13:41:40.060Z,14.50
2019-03-26T13:44:09.971Z,14.40
2019-03-26T13:46:39.732Z,13.80
2019-03-26T13:49:09.440Z,13.30
2019-03-26T13:51:39.189Z,12.80
2019-03-26T13:54:09.108Z,12.40
2019-03-26T13:56:38.912Z,12.00
2019-03-26T13:59:08.642Z,11.90
2019-03-26T14:01:38.447Z,11.80
2019-03-26T14:04:08.209Z,11.70
2019-03-26T14:06:37.928Z,11.60
2019-03-26T14:09:09.113Z,11.70
2019-03-26T14:11:38.795Z,11.90
2019-03-26T14:14:08.641Z,11.90
2019-03-26T14:16:38.514Z,12.00
2019-03-26T14:19:08.243Z,12.00
2019-03-26T14:21:37.954Z,12.00
2019-03-26T14:24:07.668Z,11.80
2019-03-26T14:26:37.366Z,11.80
2019-03-26T14:29:07.077Z,11.90
2019-03-26T14:31:36.868Z,12.20
2019-03-26T14:34:06.625Z,12.30
2019-03-26T14:36:36.367Z,12.50
2019-03-26T14:39:09.354Z,12.70
2019-03-26T14:41:39.176Z,12.50
2019-03-26T14:44:09.072Z,12.40
2019-03-26T14:46:38.792Z,12.40
2019-03-26T14:49:08.472Z,12.60
2019-03-26T14:51:38.213Z,12.70
2019-03-26T14:54:07.931Z,12.60
2019-03-26T14:56:37.664Z,12.50
2019-03-26T14:59:07.377Z,12.30
2019-03-26T15:01:37.229Z,12.40
2019-03-26T15:04:07.027Z,12.30
2019-03-26T15:06:36.845Z,12.50
2019-03-26T15:09:09.015Z,12.30
2019-03-26T15:11:38.836Z,12.20
2019-03-26T15:14:08.507Z,12.10
2019-03-26T15:16:38.300Z,12.00
2019-03-26T15:19:08.029Z,12.00
2019-03-26T15:21:37.949Z,11.90
2019-03-26T15:24:07.645Z,12.00
2019-03-26T15:26:37.363Z,12.10
2019-03-26T15:29:07.082Z,12.20
2019-03-26T15:31:36.802Z,12.20
2019-03-26T15:34:06.515Z,12.20
2019-03-26T15:36:36.261Z,12.00
2019-03-26T15:39:07.774Z,11.90
2019-03-26T15:41:37.477Z,11.90
2019-03-26T15:44:07.183Z,12.00
2019-03-26T15:46:36.976Z,11.70
2019-03-26T15:49:06.684Z,11.40
2019-03-26T15:51:36.520Z,11.30
2019-03-26T15:54:06.242Z,11.30
2019-03-26T15:56:35.966Z,11.10
2019-03-26T15:59:05.786Z,11.00
2019-03-26T16:01:35.569Z,10.90
2019-03-26T16:04:05.656Z,10.90
2019-03-26T16:06:35.373Z,10.80
2019-03-26T16:09:07.164Z,10.80
2019-03-26T16:11:36.991Z,10.80
2019-03-26T16:14:06.862Z,10.80
2019-03-26T16:16:38.030Z,10.80
2019-03-26T16:19:07.763Z,10.70
2019-03-26T16:21:37.627Z,10.70
2019-03-26T16:24:07.509Z,10.50
2019-03-26T16:26:37.222Z,10.50
2019-03-26T16:29:07.044Z,10.40
2019-03-26T16:31:36.760Z,10.40
2019-03-26T16:34:06.464Z,10.30
2019-03-26T16:36:36.171Z,10.10
2019-03-26T16:39:08.033Z,10.10
2019-03-26T16:41:48.417Z,10.10
2019-03-26T16:44:09.224Z,9.90
2019-03-26T16:46:38.956Z,9.90
2019-03-26T16:49:08.690Z,9.90
2019-03-26T16:51:38.569Z,9.90
2019-03-26T16:54:08.293Z,9.90
2019-03-26T16:56:37.985Z,9.90
2019-03-26T16:59:07.867Z,9.80
2019-03-26T17:01:37.587Z,9.70
2019-03-26T17:04:07.397Z,9.70
2019-03-26T17:06:37.105Z,9.70
2019-03-26T17:09:08.073Z,9.60
2019-03-26T17:11:37.804Z,9.70
2019-03-26T17:14:07.513Z,9.50
2019-03-26T17:16:37.284Z,9.50
2019-03-26T17:19:06.961Z,9.40
2019-03-26T17:21:36.675Z,9.40
2019-03-26T17:24:06.384Z,9.30
2019-03-26T17:26:36.205Z,9.30
2019-03-26T17:29:05.996Z,9.20
2019-03-26T17:31:35.828Z,9.10
2019-03-26T17:34:05.519Z,9.00
2019-03-26T17:36:35.242Z,9.00
2019-03-26T17:39:07.413Z,8.90
2019-03-26T17:41:37.326Z,8.90
2019-03-26T17:44:07.245Z,8.90
2019-03-26T17:46:36.979Z,9.00
2019-03-26T17:49:06.701Z,8.90
2019-03-26T17:51:36.480Z,9.00
2019-03-26T17:54:06.180Z,8.90
2019-03-26T17:56:36.000Z,8.90
2019-03-26T17:59:05.821Z,8.90
2019-03-26T18:01:35.569Z,8.90
2019-03-26T18:04:05.261Z,8.90
2019-03-26T18:06:35.038Z,8.80
2019-03-26T18:09:06.045Z,8.80
2019-03-26T18:11:35.788Z,8.80
2019-03-26T18:14:05.569Z,8.70
2019-03-26T18:16:35.382Z,8.70
2019-03-26T18:19:05.089Z,8.70
2019-03-26T18:21:34.924Z,8.80
2019-03-26T18:24:04.615Z,8.70
2019-03-26T18:26:34.340Z,8.70
2019-03-26T18:29:04.081Z,8.70
2019-03-26T18:31:33.978Z,8.80
2019-03-26T18:34:03.677Z,8.70
2019-03-26T18:36:33.612Z,8.80
2019-03-26T18:39:04.395Z,8.80
2019-03-26T18:41:34.117Z,8.80
2019-03-26T18:44:03.871Z,8.80
2019-03-26T18:46:33.594Z,8.70
2019-03-26T18:49:03.316Z,8.80
2019-03-26T18:51:33.028Z,8.80
2019-03-26T18:54:02.863Z,8.80
2019-03-26T18:56:32.606Z,8.80
2019-03-26T18:59:02.674Z,8.80
2019-03-26T19:01:32.372Z,8.80
2019-03-26T19:04:02.304Z,8.80
2019-03-26T19:06:32.000Z,8.80
2019-03-26T19:09:01.787Z,8.80
2019-03-26T19:11:31.498Z,8.80
2019-03-26T19:14:01.348Z,8.80
2019-03-26T19:16:31.134Z,8.80
2019-03-26T19:19:01.039Z,8.80
2019-03-26T19:21:30.836Z,8.80
2019-03-26T19:24:04.345Z,8.70
2019-03-26T19:26:32.044Z,8.80
2019-03-26T19:29:01.786Z,8.80
2019-03-26T19:31:31.699Z,8.70
2019-03-26T19:34:01.943Z,8.70
2019-03-26T19:36:31.852Z,8.70
2019-03-26T19:39:01.641Z,8.70
2019-03-26T19:41:31.477Z,8.70
2019-03-26T19:44:01.181Z,8.70
2019-03-26T19:46:30.933Z,8.70
2019-03-26T19:49:00.650Z,8.70
2019-03-26T19:51:30.475Z,8.80
2019-03-26T19:54:00.381Z,8.80
2019-03-26T19:56:30.283Z,8.70
2019-03-26T19:59:00.012Z,8.80
2019-03-26T20:01:29.973Z,8.60
2019-03-26T20:04:00.070Z,8.50
2019-03-26T20:06:29.963Z,8.40
2019-03-26T20:08:59.780Z,8.30
2019-03-26T20:11:29.522Z,8.30
2019-03-26T20:13:59.450Z,8.40
2019-03-26T20:16:41.361Z,8.20
2019-03-26T20:19:00.744Z,8.20
2019-03-26T20:21:30.577Z,8.10
2019-03-26T20:24:00.293Z,8.20
2019-03-26T20:26:30.020Z,8.30
2019-03-26T20:28:59.754Z,8.00
2019-03-26T20:31:29.674Z,8.10
2019-03-26T20:33:59.423Z,8.20
2019-03-26T20:36:29.272Z,8.20
2019-03-26T20:38:58.979Z,8.00
2019-03-26T20:41:28.732Z,8.00
2019-03-26T20:43:58.486Z,8.00
2019-03-26T20:46:28.381Z,8.10
2019-03-26T20:48:58.280Z,8.00
2019-03-26T20:51:28.105Z,7.90
2019-03-26T20:53:57.913Z,8.00
2019-03-26T20:56:28.021Z,7.90
2019-03-26T20:58:58.068Z,7.70
2019-03-26T21:01:27.871Z,7.40
2019-03-26T21:03:57.675Z,7.40
2019-03-26T21:06:27.431Z,7.60
2019-03-26T21:08:57.154Z,7.70
2019-03-26T21:11:26.843Z,7.80
2019-03-26T21:13:56.621Z,7.80
2019-03-26T21:16:26.325Z,7.70
2019-03-26T21:18:56.146Z,7.80
2019-03-26T21:21:25.930Z,7.70
2019-03-26T21:23:55.721Z,7.50
2019-03-26T21:26:25.488Z,7.60
2019-03-26T21:28:55.298Z,7.80
2019-03-26T21:31:25.048Z,7.80
2019-03-26T21:33:54.781Z,7.90
2019-03-26T21:36:24.474Z,8.00
2019-03-26T21:38:54.309Z,7.80
2019-03-26T21:41:24.094Z,7.90
2019-03-26T21:44:03.506Z,8.00
2019-03-26T21:46:25.297Z,8.00
2019-03-26T21:48:55.132Z,7.90
2019-03-26T21:51:24.861Z,8.00
2019-03-26T21:53:54.651Z,8.00
2019-03-26T21:56:24.353Z,8.10
2019-03-26T21:58:54.056Z,8.10
2019-03-26T22:01:23.792Z,8.00
2019-03-26T22:03:53.593Z,8.00
2019-03-26T22:06:23.320Z,8.00
2019-03-26T22:08:53.048Z,8.00
2019-03-26T22:11:22.781Z,7.90
2019-03-26T22:13:52.514Z,8.00
2019-03-26T22:16:22.388Z,8.00
2019-03-26T22:18:52.139Z,8.00
2019-03-26T22:21:21.872Z,8.00
2019-03-26T22:23:51.622Z,8.00
2019-03-26T22:26:21.406Z,8.00
2019-03-26T22:28:51.108Z,7.80
2019-03-26T22:31:20.853Z,7.90
2019-03-26T22:33:50.579Z,7.90
2019-03-26T22:36:20.322Z,7.90
2019-03-26T22:38:50.100Z,7.90
2019-03-26T22:41:19.900Z,7.90
2019-03-26T22:43:49.618Z,7.90
2019-03-26T22:46:19.389Z,7.90
2019-03-26T22:48:49.185Z,7.80
2019-03-26T22:51:18.926Z,7.80
2019-03-26T22:53:48.656Z,7.80
2019-03-26T22:56:18.405Z,7.80
2019-03-26T22:58:48.161Z,7.90
2019-03-26T23:01:18.200Z,7.90
2019-03-26T23:03:47.892Z,7.90
2019-03-26T23:06:17.631Z,8.00
2019-03-26T23:08:47.407Z,8.00
2019-03-26T23:11:17.120Z,8.00
2019-03-26T23:13:46.830Z,8.00
2019-03-26T23:16:16.588Z,8.00
2019-03-26T23:18:46.313Z,8.00
2019-03-26T23:21:16.044Z,7.90
2019-03-26T23:23:45.821Z,7.80
2019-03-26T23:26:15.532Z,7.80
2019-03-26T23:28:45.274Z,7.80
2019-03-26T23:31:14.983Z,7.90
2019-03-26T23:33:44.696Z,7.90
2019-03-26T23:36:14.384Z,7.90
2019-03-26T23:38:44.164Z,7.90
2019-03-26T23:41:13.845Z,8.00
2019-03-26T23:43:43.636Z,7.90
2019-03-26T23:46:13.326Z,7.80
2019-03-26T23:48:43.106Z,7.50
2019-03-26T23:51:12.883Z,7.60
2019-03-26T23:53:42.629Z,7.60
2019-03-26T23:56:12.398Z,7.60
2019-03-26T23:58:42.131Z,7.60
